Time;durP1;ratioP1;P1;durP2;ratioP2;P2;SDS_P1;SDS_P2;PMS_P1;PMS_P2;Temp;Humidity;BMP_temperature;BMP_pressure;BME280_temperature;BME280_humidity;BME280_pressure;Samples;Min_cycle;Max_cycle;Signal;HPM_P1;HPM_P2
2022/08/27 00:01:01;;;;;;;0.70;0.70;;;;;;;22.89;55.90;96509.16;10405995;28;20104;-29
2022/08/27 00:06:02;;;;;;;0.70;0.70;;;;;;;22.75;56.27;96508.59;10405349;28;20037;-29
2022/08/27 00:11:02;;;;;;;0.80;0.80;;;;;;;22.69;56.13;96516.41;10404652;28;20079;-30
2022/08/27 00:16:05;;;;;;;1.20;1.10;;;;;;;22.65;56.21;96517.31;10403085;28;20099;-29
2022/08/27 00:21:06;;;;;;;0.98;0.98;;;;;;;22.62;56.16;96509.72;10405313;28;20041;-29
2022/08/27 00:26:07;;;;;;;0.63;0.63;;;;;;;22.59;56.12;96502.13;10402600;28;20041;-30
2022/08/27 00:31:07;;;;;;;1.23;0.63;;;;;;;22.60;56.04;96505.50;10405096;28;20032;-30
2022/08/27 00:36:09;;;;;;;1.10;0.80;;;;;;;22.60;56.25;96496.16;10404577;28;20029;-30
2022/08/27 00:41:11;;;;;;;0.93;0.88;;;;;;;22.80;56.66;96496.59;10401923;28;20503;-29
2022/08/27 00:46:40;;;;;;;1.13;0.80;;;;;;;22.88;56.19;96497.28;10400616;28;20061;-29
2022/08/27 00:51:41;;;;;;;0.90;0.90;;;;;;;22.72;56.45;96495.09;10402824;28;20084;-30
2022/08/27 00:56:43;;;;;;;0.90;0.90;;;;;;;22.67;56.06;96495.16;10402314;28;20091;-29
2022/08/27 01:07:04;;;;;;;1.00;1.00;;;;;;;22.59;56.10;96489.38;10405188;28;20521;-29
2022/08/27 01:12:04;;;;;;;0.75;0.75;;;;;;;22.60;56.19;96485.94;10411101;28;20031;-29
2022/08/27 01:17:08;;;;;;;0.90;0.90;;;;;;;22.60;56.16;96485.09;10411065;28;20059;-29
2022/08/27 01:22:17;;;;;;;1.05;0.95;;;;;;;22.62;57.29;96484.19;10412347;28;20076;-29
2022/08/27 01:27:22;;;;;;;0.80;0.80;;;;;;;22.85;56.49;96470.97;10411764;28;20139;-29
2022/08/27 01:32:26;;;;;;;0.70;0.70;;;;;;;22.83;56.22;96468.44;10410615;28;20033;-29
2022/08/27 01:37:27;;;;;;;1.00;0.90;;;;;;;22.71;56.30;96466.16;10409783;28;20043;-29
2022/08/27 01:42:29;;;;;;;1.30;1.13;;;;;;;22.65;56.17;96463.72;10410857;28;20445;-29
2022/08/27 01:47:30;;;;;;;1.25;1.15;;;;;;;22.63;56.07;96467.16;10409007;28;20048;-29
2022/08/27 01:52:30;;;;;;;0.87;0.83;;;;;;;22.61;56.17;96467.22;10409070;28;20373;-30
2022/08/27 01:57:31;;;;;;;0.70;0.70;;;;;;;22.62;56.23;96461.22;10411188;28;20272;-29
2022/08/27 02:02:31;;;;;;;1.50;1.40;;;;;;;22.61;56.19;96462.09;10409516;28;20504;-29
2022/08/27 02:07:31;;;;;;;0.93;0.93;;;;;;;22.68;57.29;96456.00;10408887;28;20068;-29
2022/08/27 02:12:32;;;;;;;1.00;0.90;;;;;;;22.81;56.66;96431.91;10410647;28;20033;-30
2022/08/27 02:17:33;;;;;;;0.70;0.70;;;;;;;22.82;56.36;96443.78;10408606;28;20033;-30
2022/08/27 02:22:33;;;;;;;1.70;1.60;;;;;;;22.67;56.41;96433.91;10405943;28;20049;-29
2022/08/27 02:27:34;;;;;;;1.65;1.23;;;;;;;22.66;55.98;96432.22;10409077;28;20381;-29
2022/08/27 02:32:34;;;;;;;1.00;1.00;;;;;;;22.63;56.23;96431.44;10406490;28;20021;-30
2022/08/27 02:37:36;;;;;;;1.10;1.00;;;;;;;22.63;56.21;96434.84;10407203;28;20416;-29
2022/08/27 02:42:37;;;;;;;1.02;0.98;;;;;;;22.60;56.04;96434.91;10408632;28;20041;-29
2022/08/27 02:47:37;;;;;;;1.10;1.00;;;;;;;22.58;56.06;96436.63;10407286;28;20529;-29
2022/08/27 02:52:38;;;;;;;0.90;0.90;;;;;;;22.69;56.84;96434.72;10407155;28;20048;-31
2022/08/27 02:57:39;;;;;;;1.27;1.17;;;;;;;22.89;56.55;96426.66;10408851;28;20288;-29
2022/08/27 03:02:39;;;;;;;0.60;0.60;;;;;;;22.78;56.36;96424.31;10406698;28;20029;-28
2022/08/27 03:07:40;;;;;;;1.47;1.20;;;;;;;22.69;56.20;96419.41;10406851;28;20092;-30
2022/08/27 03:12:41;;;;;;;1.48;1.38;;;;;;;22.63;55.63;96411.03;10407767;28;20033;-29
2022/08/27 03:23:01;;;;;;;2.13;1.63;;;;;;;22.67;56.51;96416.06;10403941;28;20119;-30
2022/08/27 03:28:02;;;;;;;2.03;1.90;;;;;;;22.63;56.14;96394.00;10407509;28;20504;-29
2022/08/27 03:33:02;;;;;;;1.85;1.60;;;;;;;22.61;56.18;96395.75;10405672;28;20116;-29
2022/08/27 03:38:02;;;;;;;1.17;1.03;;;;;;;22.74;56.80;96391.22;10404797;28;20499;-29
2022/08/27 03:43:03;;;;;;;1.20;1.10;;;;;;;22.92;56.46;96398.47;10406358;28;20399;-31
2022/08/27 03:48:04;;;;;;;0.75;0.75;;;;;;;22.78;56.24;96393.69;10404104;28;20284;-28
2022/08/27 03:53:05;;;;;;;1.20;1.10;;;;;;;22.69;56.25;96393.88;10401117;28;20029;-30
2022/08/27 03:58:05;;;;;;;1.30;1.20;;;;;;;22.65;56.12;96392.25;10406737;28;20329;-30
2022/08/27 04:03:06;;;;;;;1.43;1.33;;;;;;;22.62;56.22;96392.34;10400993;28;20408;-29
2022/08/27 04:08:09;;;;;;;0.80;0.80;;;;;;;22.58;56.22;96383.03;10401347;28;20313;-29
2022/08/27 04:13:09;;;;;;;1.38;1.27;;;;;;;22.60;56.23;96391.53;10405461;28;20045;-29
2022/08/27 04:18:11;;;;;;;1.20;1.10;;;;;;;22.60;56.19;96398.34;10402617;28;20439;-29
2022/08/27 04:23:12;;;;;;;1.10;1.00;;;;;;;22.75;56.81;96398.84;10402260;28;20622;-29
2022/08/27 04:28:14;;;;;;;0.90;0.90;;;;;;;22.91;56.10;96410.41;10406063;28;20040;-30
2022/08/27 04:33:14;;;;;;;1.00;0.90;;;;;;;22.76;56.37;96420.97;10402178;28;20033;-30
2022/08/27 04:38:14;;;;;;;0.88;0.88;;;;;;;22.69;56.13;96419.41;10402846;28;20111;-29
2022/08/27 04:43:15;;;;;;;1.33;1.23;;;;;;;22.64;56.17;96426.31;10406960;28;20037;-29
2022/08/27 04:48:18;;;;;;;1.67;1.58;;;;;;;22.62;56.22;96433.16;10411363;28;20040;-29
2022/08/27 04:53:19;;;;;;;1.25;1.15;;;;;;;22.60;56.08;96429.81;10411524;28;20037;-29
2022/08/27 04:58:21;;;;;;;0.85;0.85;;;;;;;22.60;56.23;96424.72;10413688;28;20033;-30
2022/08/27 05:03:23;;;;;;;1.75;1.65;;;;;;;22.62;56.15;96432.31;10411599;28;20041;-30
2022/08/27 05:08:23;;;;;;;1.10;1.10;;;;;;;22.77;56.68;96443.06;10411571;28;20041;-31
2022/08/27 05:13:23;;;;;;;0.90;0.90;;;;;;;22.92;56.09;96445.25;10412323;28;20395;-30
2022/08/27 05:18:24;;;;;;;0.80;0.80;;;;;;;22.76;56.08;96443.09;10411926;28;20026;-29
2022/08/27 05:23:26;;;;;;;1.45;1.35;;;;;;;22.67;56.13;96441.56;10409178;28;20064;-29
2022/08/27 05:28:28;;;;;;;1.45;1.35;;;;;;;22.66;56.16;96441.59;10412301;28;20443;-30
2022/08/27 05:33:29;;;;;;;1.58;1.48;;;;;;;22.62;56.26;96437.41;10410200;28;20060;-29
2022/08/27 05:38:31;;;;;;;1.63;1.52;;;;;;;22.62;56.11;96438.28;10411614;28;20040;-29
2022/08/27 05:43:32;;;;;;;1.50;1.40;;;;;;;22.61;56.21;96446.81;10412480;28;20033;-29
2022/08/27 05:48:34;;;;;;;1.20;1.10;;;;;;;22.53;56.32;96440.16;10410307;28;20041;-30
2022/08/27 05:53:35;;;;;;;1.10;1.00;;;;;;;22.78;56.54;96454.94;10404052;28;20045;-29
2022/08/27 06:03:55;;;;;;;0.80;0.80;;;;;;;22.74;56.18;96449.94;10410264;28;20117;-29
2022/08/27 06:08:55;;;;;;;1.45;1.35;;;;;;;22.66;56.11;96447.53;10409997;28;20032;-29
2022/08/27 06:13:56;;;;;;;1.40;1.30;;;;;;;22.63;56.33;96441.63;10408599;28;20484;-29
2022/08/27 06:18:57;;;;;;;1.85;1.40;;;;;;;22.61;56.23;96441.69;10408486;28;20040;-28
2022/08/27 06:23:58;;;;;;;1.10;1.00;;;;;;;22.60;56.17;96440.03;10408082;28;20040;-30
2022/08/27 06:29:04;;;;;;;0.80;0.80;;;;;;;22.58;56.15;96441.75;10410310;28;20521;-30
2022/08/27 06:34:06;;;;;;;1.05;1.05;;;;;;;22.56;56.44;96438.38;10402900;28;20064;-29
2022/08/27 06:39:07;;;;;;;1.13;1.02;;;;;;;22.80;56.67;96447.22;10406967;28;20499;-29
2022/08/27 06:44:08;;;;;;;1.30;0.88;;;;;;;22.88;56.16;96448.75;10410454;28;20044;-29
2022/08/27 06:49:09;;;;;;;1.35;1.20;;;;;;;22.73;56.02;96450.81;10406728;28;20083;-31
2022/08/27 06:54:11;;;;;;;1.55;1.27;;;;;;;22.68;56.17;96448.34;10407403;28;20052;-30
2022/08/27 06:59:14;;;;;;;1.02;1.02;;;;;;;22.60;56.30;96434.91;10408482;28;20091;-30
2022/08/27 07:04:23;;;;;;;1.40;1.30;;;;;;;22.63;56.21;96452.72;10407014;28;20061;-29
2022/08/27 07:09:24;;;;;;;1.27;1.17;;;;;;;22.63;56.29;96456.94;10405956;28;20420;-30
2022/08/27 07:14:24;;;;;;;1.85;1.75;;;;;;;22.62;56.26;96457.81;10408737;28;20044;-29
2022/08/27 07:19:26;;;;;;;1.47;1.37;;;;;;;22.63;56.69;96450.16;10404118;28;20496;-29
2022/08/27 07:24:27;;;;;;;2.03;1.00;;;;;;;22.84;56.88;96457.38;10405512;28;20042;-29
2022/08/27 07:29:27;;;;;;;0.90;0.90;;;;;;;22.86;56.25;96460.72;10407187;28;20045;-30
2022/08/27 07:34:28;;;;;;;1.13;1.02;;;;;;;22.56;56.31;96430.72;10406011;28;20458;-28
2022/08/27 07:39:28;;;;;;;1.85;1.15;;;;;;;22.66;56.17;96455.19;10404198;28;20557;-29
2022/08/27 07:44:29;;;;;;;1.50;1.40;;;;;;;22.64;56.21;96456.94;10406936;28;20093;-29
2022/08/27 07:49:30;;;;;;;1.40;1.30;;;;;;;22.63;56.27;96462.06;10405594;28;20646;-30
2022/08/27 07:54:31;;;;;;;1.30;1.20;;;;;;;22.61;56.31;96462.09;10405769;28;20057;-29
2022/08/27 07:59:31;;;;;;;0.88;0.88;;;;;;;22.61;56.11;96461.25;10406329;28;20124;-29
2022/08/27 08:04:32;;;;;;;1.70;1.60;;;;;;;22.64;57.44;96459.47;10405104;28;20120;-29
2022/08/27 08:09:32;;;;;;;1.10;1.00;;;;;;;22.84;56.38;96470.16;10404882;28;20040;-29
2022/08/27 08:14:33;;;;;;;0.87;0.87;;;;;;;22.84;56.23;96469.28;10406235;28;20072;-29
2022/08/27 08:19:33;;;;;;;1.52;1.00;;;;;;;22.74;56.27;96470.34;10402563;28;20318;-29
2022/08/27 08:24:35;;;;;;;1.00;1.00;;;;;;;22.69;56.21;96475.56;10398905;28;20033;-31
2022/08/27 08:29:36;;;;;;;1.58;1.48;;;;;;;22.66;56.20;96480.69;10406114;28;20280;-29
2022/08/27 08:34:37;;;;;;;1.17;1.08;;;;;;;22.64;56.45;96484.19;10404300;28;20492;-29
2022/08/27 08:39:37;;;;;;;1.38;1.27;;;;;;;22.61;56.49;96481.66;10402550;28;20037;-29
2022/08/27 08:44:47;;;;;;;1.00;0.90;;;;;;;22.60;56.27;96480.84;10405571;28;20045;-29
2022/08/27 08:50:12;;;;;;;1.40;1.30;;;;;;;22.68;56.77;96473.03;10403040;28;20029;-29
2022/08/27 08:55:17;;;;;;;1.25;1.15;;;;;;;22.87;56.32;96475.16;10403791;28;20492;-29
2022/08/27 09:00:18;;;;;;;1.10;1.00;;;;;;;22.80;56.39;96480.41;10405369;28;20045;-31
2022/08/27 09:05:20;;;;;;;1.10;1.00;;;;;;;22.71;56.25;96476.34;10404490;28;20491;-29
2022/08/27 09:10:43;;;;;;;6.82;3.25;;;;;;;22.70;56.21;96463.63;10403274;28;20037;-30
2022/08/27 09:15:44;;;;;;;6.15;3.70;;;;;;;22.65;56.15;96463.72;10398489;28;20491;-30
2022/08/27 09:20:49;;;;;;;3.22;2.90;;;;;;;22.65;56.19;96462.91;10404660;28;20038;-29
2022/08/27 09:25:50;;;;;;;3.97;2.70;;;;;;;22.61;56.17;96459.56;10402338;28;20030;-30
2022/08/27 09:30:52;;;;;;;2.38;1.92;;;;;;;22.60;56.48;96465.53;10405712;28;20037;-29
2022/08/27 09:35:52;;;;;;;1.52;1.33;;;;;;;22.75;56.82;96461.81;10412122;28;20037;-30
2022/08/27 09:40:55;;;;;;;1.03;1.00;;;;;;;22.92;56.35;96470.78;10409490;28;20099;-29
2022/08/27 09:46:04;;;;;;;1.00;1.00;;;;;;;22.77;56.28;96468.59;10411538;28;20428;-29
2022/08/27 09:51:13;;;;;;;1.63;1.30;;;;;;;22.72;56.09;96464.44;10404414;28;20025;-30
2022/08/27 09:56:28;;;;;;;1.50;1.40;;;;;;;22.62;56.18;96457.81;10409440;28;20031;-30
2022/08/27 10:01:32;;;;;;;3.87;1.13;;;;;;;22.63;56.25;96460.34;10410442;28;20561;-29
2022/08/27 10:06:33;;;;;;;1.52;1.00;;;;;;;22.62;56.29;96463.78;10410839;28;20164;-30
2022/08/27 10:11:39;;;;;;;1.70;1.35;;;;;;;22.62;56.07;96455.28;10409329;28;20128;-29
2022/08/27 10:16:53;;;;;;;;;;;;;;;22.60;56.21;96462.13;10405397;28;20041;-29
2022/08/27 10:22:24;;;;;;;1.08;0.98;;;;;;;22.79;56.64;96456.63;10408134;28;19948;-29
2022/08/27 10:27:43;;;;;;;1.05;1.00;;;;;;;22.85;56.27;96456.50;10408953;28;20029;-29
2022/08/27 10:32:46;;;;;;;0.80;0.80;;;;;;;22.73;56.20;96451.63;10403007;28;20488;-29
2022/08/27 10:37:53;;;;;;;1.50;1.40;;;;;;;22.67;56.13;96451.78;10406930;28;20117;-29
2022/08/27 10:43:31;;;;;;;1.60;1.50;;;;;;;22.63;56.10;96437.41;10405907;28;20053;-30
2022/08/27 10:48:40;;;;;;;2.38;1.83;;;;;;;22.63;56.14;96449.28;10408515;28;20033;-29
2022/08/27 10:54:09;;;;;;;1.20;1.10;;;;;;;22.63;56.27;96445.06;10407234;28;20033;-30
2022/08/27 10:59:22;;;;;;;1.98;1.77;;;;;;;22.63;56.38;96442.50;10406071;28;20108;-29
2022/08/27 11:04:38;;;;;;;0.98;0.95;;;;;;;22.73;56.81;96440.59;10406746;28;20099;-29
2022/08/27 11:09:55;;;;;;;0.93;0.87;;;;;;;22.89;56.19;96432.56;10405673;28;20025;-30
2022/08/27 11:15:04;;;;;;;1.35;1.25;;;;;;;22.78;56.56;96423.47;10405174;28;20041;-30
2022/08/27 11:20:15;;;;;;;1.02;0.93;;;;;;;22.69;56.18;96421.97;10407192;28;20033;-30
2022/08/27 11:25:21;;;;;;;1.40;1.30;;;;;;;22.66;56.24;96418.63;10405088;28;20037;-30
2022/08/27 11:30:21;;;;;;;;;;;;;;;22.65;56.10;96412.69;10408936;28;20090;-30
2022/08/27 11:35:24;;;;;;;1.60;1.50;;;;;;;22.62;56.25;96412.75;10406071;28;20445;-30
2022/08/27 11:41:03;;;;;;;1.38;1.27;;;;;;;22.58;56.23;96406.00;10404627;28;20037;-29
2022/08/27 11:46:07;;;;;;;1.50;1.40;;;;;;;22.58;56.28;96408.56;10380839;28;20124;-29
2022/08/27 11:51:13;;;;;;;1.27;0.95;;;;;;;22.82;56.61;96404.66;10406543;28;20408;-30
2022/08/27 11:56:40;;;;;;;0.73;0.73;;;;;;;22.89;56.20;96411.31;10404545;28;20098;-29
2022/08/27 12:01:40;;;;;;;1.40;1.30;;;;;;;22.75;56.46;96409.03;10402646;28;20037;-29
2022/08/27 12:06:43;;;;;;;1.10;1.00;;;;;;;22.71;56.29;96412.56;10406464;28;20420;-30
2022/08/27 12:12:14;;;;;;;1.40;1.30;;;;;;;22.72;56.16;96421.88;10404803;28;20033;-29
2022/08/27 12:17:29;;;;;;;2.60;2.40;;;;;;;22.67;56.14;96426.25;10402602;28;20033;-31
2022/08/27 12:28:08;;;;;;;1.48;1.38;;;;;;;22.61;56.40;96422.97;10405267;28;20106;-30
2022/08/27 12:33:30;;;;;;;1.38;1.27;;;;;;;22.72;56.96;96431.28;10406252;28;20033;-30
2022/08/27 12:38:31;;;;;;;1.17;1.10;;;;;;;22.92;56.25;96434.22;10405741;28;20403;-29
2022/08/27 12:43:32;;;;;;;1.20;1.10;;;;;;;22.80;56.47;96427.66;10406946;28;20053;-29
2022/08/27 12:48:38;;;;;;;1.40;1.30;;;;;;;22.73;56.21;96431.22;10403746;28;20595;-29
2022/08/27 12:53:41;;;;;;;1.60;1.40;;;;;;;22.73;56.43;96433.78;10400962;28;20669;-30
2022/08/27 12:58:45;;;;;;;2.20;2.00;;;;;;;22.69;56.22;96432.16;10405796;28;20292;-29
2022/08/27 13:03:51;;;;;;;1.90;1.80;;;;;;;22.66;56.13;96429.66;10405799;28;20091;-29
2022/08/27 13:08:58;;;;;;;1.88;1.77;;;;;;;22.64;56.31;96421.22;10410906;28;20036;-29
2022/08/27 13:14:14;;;;;;;1.55;1.45;;;;;;;22.64;56.08;96418.66;10412511;28;20026;-30
2022/08/27 13:19:27;;;;;;;1.38;1.27;;;;;;;22.81;56.52;96416.59;10406125;28;20092;-29
2022/08/27 13:24:45;;;;;;;0.80;0.80;;;;;;;22.91;56.10;96415.50;10410570;28;20101;-29
2022/08/27 13:29:45;;;;;;;1.35;1.25;;;;;;;22.76;56.29;96415.84;10410940;28;20033;-29
2022/08/27 13:34:46;;;;;;;1.40;1.30;;;;;;;22.72;56.27;96408.31;10409263;28;20049;-29
2022/08/27 13:39:53;;;;;;;1.83;1.30;;;;;;;22.71;56.41;96415.09;10409345;28;20083;-30
2022/08/27 13:44:59;;;;;;;;;;;;;;;22.73;56.50;96415.91;10411770;28;20045;-30
2022/08/27 13:50:20;;;;;;;2.25;2.05;;;;;;;22.70;56.43;96410.88;10409142;28;19919;-30
2022/08/27 13:55:20;;;;;;;2.30;2.20;;;;;;;22.71;56.30;96430.41;10408865;28;20132;-29
2022/08/27 14:00:30;;;;;;;2.60;2.33;;;;;;;22.73;57.46;96441.44;10411300;28;20036;-31
2022/08/27 14:05:35;;;;;;;1.25;1.15;;;;;;;22.93;56.57;96454.63;10405118;28;20120;-29
2022/08/27 14:10:39;;;;;;;1.23;1.13;;;;;;;22.96;56.43;96446.88;10409326;28;20044;-29
2022/08/27 14:15:46;;;;;;;2.90;2.70;;;;;;;22.98;58.23;96455.34;10400580;28;20040;-29
2022/08/27 14:20:47;;;;;;;2.75;2.55;;;;;;;23.00;58.49;96450.22;10410581;28;20240;-29
2022/08/27 14:25:47;;;;;;;2.47;2.27;;;;;;;23.01;58.80;96457.84;10407430;28;20049;-29
2022/08/27 14:30:48;;;;;;;2.80;2.60;;;;;;;23.01;58.64;96470.63;10403321;28;20025;-30
2022/08/27 14:35:48;;;;;;;2.73;2.53;;;;;;;22.96;58.95;96446.88;10410280;28;20053;-29
2022/08/27 14:40:53;;;;;;;2.70;2.50;;;;;;;23.03;58.89;96455.25;10406550;28;20341;-29
2022/08/27 14:45:54;;;;;;;2.42;2.22;;;;;;;23.02;57.67;96449.31;10409124;28;20040;-30
2022/08/27 14:50:56;;;;;;;2.20;2.00;;;;;;;23.16;57.04;96456.69;10404670;28;20044;-30
2022/08/27 14:55:58;;;;;;;2.88;2.40;;;;;;;23.11;57.83;96453.38;10407565;28;20040;-29
2022/08/27 15:00:59;;;;;;;2.88;2.67;;;;;;;23.08;58.66;96448.34;10408284;28;20083;-29
2022/08/27 15:05:59;;;;;;;2.72;2.53;;;;;;;23.01;58.54;96436.56;10406024;28;20566;-29
2022/08/27 15:10:59;;;;;;;3.10;2.90;;;;;;;23.05;58.79;96453.50;10407273;28;20095;-30
2022/08/27 15:16:00;;;;;;;2.67;2.47;;;;;;;23.04;58.90;96462.88;10407290;28;20037;-31
2022/08/27 15:21:00;;;;;;;3.07;2.77;;;;;;;23.04;58.99;96478.19;10407211;28;20081;-29
2022/08/27 15:26:00;;;;;;;3.27;3.03;;;;;;;23.05;59.08;96479.88;10404397;28;20038;-29
2022/08/27 15:31:01;;;;;;;1.73;1.63;;;;;;;23.06;57.13;96479.00;10405607;28;20048;-29
2022/08/27 15:36:01;;;;;;;2.33;2.13;;;;;;;23.20;56.94;96479.59;10407509;28;20060;-29
2022/08/27 15:41:04;;;;;;;1.70;1.60;;;;;;;22.95;56.88;96478.41;10405501;28;20030;-29
2022/08/27 15:46:05;;;;;;;2.78;2.42;;;;;;;22.78;56.68;96460.06;10406624;28;20512;-29
2022/08/27 15:51:08;;;;;;;2.42;2.22;;;;;;;22.76;56.26;96477.13;10399954;28;20049;-29
2022/08/27 15:56:09;;;;;;;3.03;2.83;;;;;;;22.74;56.49;96476.28;10404955;28;20176;-29
2022/08/27 16:01:13;;;;;;;2.67;2.47;;;;;;;22.71;56.55;96458.50;10405200;28;20048;-29
2022/08/27 16:06:13;;;;;;;2.42;2.22;;;;;;;22.71;56.53;96455.94;10406401;28;20475;-29
2022/08/27 16:11:14;;;;;;;2.23;2.03;;;;;;;22.71;56.56;96462.75;10404675;28;20608;-29
2022/08/27 16:16:17;;;;;;;1.55;1.45;;;;;;;22.84;57.08;96456.53;10403724;28;20040;-29
2022/08/27 16:21:18;;;;;;;1.40;1.30;;;;;;;22.98;56.35;96447.69;10403342;28;20404;-30
2022/08/27 16:26:18;;;;;;;1.55;1.45;;;;;;;22.84;56.46;96449.72;10404221;28;20045;-28
2022/08/27 16:31:19;;;;;;;2.10;1.90;;;;;;;22.78;56.35;96451.53;10405255;28;20041;-29
2022/08/27 16:36:19;;;;;;;1.80;1.70;;;;;;;22.76;56.76;96456.69;10401890;28;20303;-31
2022/08/27 16:41:21;;;;;;;2.60;2.40;;;;;;;22.73;56.46;96451.63;10408675;28;20546;-30
2022/08/27 16:46:22;;;;;;;2.95;2.67;;;;;;;22.68;56.30;96452.59;10412863;28;20045;-30
2022/08/27 16:51:29;;;;;;;1.70;1.60;;;;;;;22.66;56.56;96439.88;10413516;28;20026;-29
2022/08/27 16:56:30;;;;;;;1.60;1.50;;;;;;;22.64;56.32;96436.53;10411738;28;20088;-29
2022/08/27 17:01:32;;;;;;;2.00;1.27;;;;;;;22.83;56.71;96442.91;10412889;28;20516;-29
2022/08/27 17:06:32;;;;;;;1.38;1.27;;;;;;;22.97;56.30;96438.34;10411930;28;20037;-29
2022/08/27 17:11:34;;;;;;;1.20;1.10;;;;;;;22.80;56.35;96442.97;10411202;28;20033;-29
2022/08/27 17:16:35;;;;;;;1.38;1.27;;;;;;;22.76;56.35;96440.53;10410235;28;20102;-30
2022/08/27 17:21:36;;;;;;;2.20;2.00;;;;;;;22.70;56.46;96440.66;10409216;28;20094;-30
2022/08/27 17:26:37;;;;;;;1.50;1.40;;;;;;;22.67;56.55;96441.56;10410606;28;20021;-29
2022/08/27 17:31:40;;;;;;;1.48;1.38;;;;;;;22.66;56.43;96444.16;10405062;28;20037;-30
2022/08/27 17:36:40;;;;;;;1.60;1.50;;;;;;;22.64;56.31;96446.72;10412026;28;20051;-29
2022/08/27 17:41:44;;;;;;;1.27;1.17;;;;;;;22.63;56.58;96450.16;10408964;28;20094;-30
2022/08/27 17:46:44;;;;;;;1.63;1.52;;;;;;;22.87;56.57;96454.75;10407361;28;20037;-29
2022/08/27 17:51:46;;;;;;;1.20;1.10;;;;;;;22.92;56.42;96458.03;10411376;28;20029;-29
2022/08/27 17:56:47;;;;;;;1.45;1.35;;;;;;;22.78;56.35;96459.19;10410022;28;20044;-30
2022/08/27 18:01:48;;;;;;;1.40;1.30;;;;;;;22.70;56.28;96451.72;10409955;28;20243;-29
2022/08/27 18:06:48;;;;;;;1.75;1.58;;;;;;;22.69;56.33;96462.78;10411372;28;20527;-29
2022/08/27 18:11:49;;;;;;;2.00;1.90;;;;;;;22.70;56.68;96467.03;10409469;28;20090;-31
2022/08/27 18:16:49;;;;;;;2.00;1.90;;;;;;;22.67;56.41;96459.44;10409583;28;20036;-29
2022/08/27 18:21:51;;;;;;;2.17;2.08;;;;;;;22.68;56.46;96465.38;10410181;28;20037;-29
2022/08/27 18:26:51;;;;;;;2.72;2.53;;;;;;;22.70;57.13;96464.47;10407740;28;20079;-29
2022/08/27 18:31:52;;;;;;;1.53;1.43;;;;;;;22.89;57.10;96463.22;10409614;28;20040;-29
2022/08/27 18:36:52;;;;;;;1.58;1.35;;;;;;;22.88;56.66;96469.19;10403827;28;20172;-29
2022/08/27 18:41:53;;;;;;;1.30;1.20;;;;;;;22.78;56.49;96474.50;10406831;28;20038;-29
2022/08/27 18:46:54;;;;;;;2.75;1.70;;;;;;;22.75;56.52;96475.41;10407867;28;20068;-30
2022/08/27 18:51:54;;;;;;;2.30;2.10;;;;;;;22.70;56.40;96474.69;10409220;28;20075;-31
2022/08/27 18:56:55;;;;;;;2.08;1.92;;;;;;;22.69;56.41;96480.66;10408036;28;20036;-29
2022/08/27 19:01:55;;;;;;;2.15;2.05;;;;;;;22.68;56.46;96493.44;10404904;28;20029;-29
2022/08/27 19:06:56;;;;;;;2.37;2.17;;;;;;;22.66;56.57;96497.75;10408561;28;20029;-29
2022/08/27 19:11:56;;;;;;;2.20;2.10;;;;;;;22.70;57.95;96504.44;10406719;28;20292;-29
2022/08/27 19:16:57;;;;;;;1.73;1.63;;;;;;;22.91;56.89;96506.59;10405407;28;20124;-29
2022/08/27 19:21:58;;;;;;;1.42;1.25;;;;;;;22.89;56.70;96509.16;10407482;28;20730;-28
2022/08/27 19:26:59;;;;;;;1.60;1.50;;;;;;;22.76;56.57;96512.84;10405127;28;20090;-31
2022/08/27 19:31:59;;;;;;;1.73;1.63;;;;;;;22.73;56.40;96533.31;10403594;28;20025;-31
2022/08/27 19:37:01;;;;;;;2.30;2.10;;;;;;;22.70;56.42;96535.09;10407631;28;20424;-29
2022/08/27 19:42:02;;;;;;;2.10;2.00;;;;;;;22.68;56.40;96537.69;10404860;28;20041;-30
2022/08/27 19:47:03;;;;;;;2.22;2.05;;;;;;;22.68;56.44;96544.50;10404485;28;20072;-30
2022/08/27 19:52:03;;;;;;;1.75;1.63;;;;;;;22.68;56.49;96539.38;10404991;28;20055;-29
2022/08/27 19:57:04;;;;;;;1.40;1.30;;;;;;;22.73;58.31;96540.16;10404854;28;20108;-29
2022/08/27 20:02:06;;;;;;;1.50;1.40;;;;;;;22.93;56.83;96535.47;10402858;28;20034;-29
2022/08/27 20:07:07;;;;;;;1.38;1.27;;;;;;;22.86;56.79;96539.88;10406973;28;20021;-29
2022/08/27 20:12:09;;;;;;;1.80;1.70;;;;;;;22.78;56.51;96545.97;10404681;28;20034;-29
2022/08/27 20:17:09;;;;;;;1.95;1.85;;;;;;;22.75;56.64;96546.88;10402503;28;20522;-30
2022/08/27 20:22:10;;;;;;;2.08;1.98;;;;;;;22.72;56.44;96546.94;10405744;28;20044;-30
2022/08/27 20:27:10;;;;;;;2.10;2.00;;;;;;;22.68;56.39;96540.25;10403388;28;20044;-31
2022/08/27 20:32:11;;;;;;;3.27;2.57;;;;;;;22.67;56.55;96553.88;10403271;28;20446;-29
2022/08/27 20:37:12;;;;;;;2.28;2.08;;;;;;;22.70;56.68;96548.69;10405376;28;20123;-29
2022/08/27 20:42:13;;;;;;;2.15;1.95;;;;;;;22.75;57.60;96551.97;10403044;28;20137;-29
2022/08/27 20:47:15;;;;;;;1.77;1.67;;;;;;;22.94;56.86;96558.44;10399054;28;20041;-29
2022/08/27 20:52:15;;;;;;;1.75;1.65;;;;;;;22.87;56.91;96556.88;10404876;28;20038;-29
2022/08/27 20:57:16;;;;;;;2.07;1.97;;;;;;;22.82;56.68;96568.03;10404090;28;20037;-30
2022/08/27 21:02:23;;;;;;;2.17;1.97;;;;;;;22.77;56.51;96559.63;10404128;28;20033;-29
2022/08/27 21:07:24;;;;;;;2.10;2.00;;;;;;;22.75;56.07;96563.94;10403887;28;20658;-30
2022/08/27 21:12:28;;;;;;;2.40;2.20;;;;;;;22.67;56.44;96558.97;10404602;28;20034;-31
2022/08/27 21:17:29;;;;;;;2.70;2.50;;;;;;;22.72;56.62;96566.56;10402551;28;20048;-29
2022/08/27 21:22:29;;;;;;;2.15;2.05;;;;;;;22.74;56.81;96562.25;10401941;28;20646;-29
2022/08/27 21:27:30;;;;;;;1.88;1.77;;;;;;;22.82;57.53;96568.88;10409661;28;20037;-29
2022/08/27 21:32:30;;;;;;;1.97;1.70;;;;;;;22.99;56.97;96569.38;10409765;28;20075;-28
2022/08/27 21:37:31;;;;;;;1.45;1.35;;;;;;;22.88;56.83;96566.22;10410100;28;20765;-29
2022/08/27 21:42:31;;;;;;;2.30;2.00;;;;;;;22.79;56.60;96557.88;10411044;28;20063;-29
2022/08/27 21:47:31;;;;;;;1.87;1.77;;;;;;;22.73;56.37;96563.94;10409865;28;20446;-30
2022/08/27 21:52:32;;;;;;;2.03;1.93;;;;;;;22.69;56.50;96557.22;10409311;28;20272;-30
2022/08/27 21:57:32;;;;;;;2.10;1.90;;;;;;;22.70;56.65;96563.16;10410718;28;20038;-29
2022/08/27 22:02:32;;;;;;;2.30;2.10;;;;;;;22.68;56.80;96568.31;10407773;28;20492;-29
2022/08/27 22:07:33;;;;;;;3.50;2.53;;;;;;;22.67;56.51;96558.97;10409984;28;20310;-29
2022/08/27 22:12:34;;;;;;;1.38;1.27;;;;;;;22.76;57.00;96558.81;10402705;28;20033;-30
2022/08/27 22:17:34;;;;;;;1.50;1.40;;;;;;;22.91;56.45;96558.47;10408585;28;20033;-29
2022/08/27 22:22:35;;;;;;;1.40;1.30;;;;;;;22.81;56.58;96556.97;10407882;28;20045;-29
2022/08/27 22:27:35;;;;;;;1.50;1.40;;;;;;;22.73;56.47;96551.19;10409549;28;20280;-29
2022/08/27 22:32:37;;;;;;;1.42;1.33;;;;;;;22.68;56.44;96550.44;10402747;28;20033;-29
2022/08/27 22:37:38;;;;;;;2.17;2.00;;;;;;;22.66;56.53;96552.16;10405299;28;20041;-29
2022/08/27 22:42:38;;;;;;;1.65;1.55;;;;;;;22.65;56.49;96553.03;10409767;28;20049;-29
2022/08/27 22:47:38;;;;;;;2.33;2.08;;;;;;;22.64;56.43;96548.81;10405428;28;20127;-29
2022/08/27 22:52:42;;;;;;;2.17;1.97;;;;;;;22.66;56.64;96556.44;10407455;28;20398;-29
2022/08/27 22:57:43;;;;;;;1.60;1.50;;;;;;;22.76;56.88;96556.25;10408351;28;20059;-29
2022/08/27 23:02:44;;;;;;;1.63;1.53;;;;;;;22.93;56.66;96566.13;10403232;28;20492;-29
2022/08/27 23:07:44;;;;;;;1.50;1.40;;;;;;;22.82;56.44;96552.72;10406921;28;20406;-31
2022/08/27 23:12:45;;;;;;;1.77;1.67;;;;;;;22.73;56.24;96558.00;10408464;28;20519;-30
2022/08/27 23:17:46;;;;;;;2.30;2.10;;;;;;;22.66;56.51;96557.28;10404883;28;20030;-30
2022/08/27 23:22:47;;;;;;;3.20;2.05;;;;;;;22.71;56.63;96569.94;10405522;28;20033;-29
2022/08/27 23:27:48;;;;;;;2.25;2.10;;;;;;;22.70;56.33;96568.25;10407264;28;20092;-28
2022/08/27 23:32:49;;;;;;;2.43;2.23;;;;;;;22.69;56.60;96562.34;10405849;28;20396;-31
2022/08/27 23:37:50;;;;;;;2.45;2.25;;;;;;;22.69;56.42;96556.38;10405265;28;20407;-31
2022/08/27 23:42:51;;;;;;;1.27;1.17;;;;;;;22.80;56.88;96560.41;10407695;28;20557;-30
2022/08/27 23:47:51;;;;;;;1.30;1.20;;;;;;;22.95;56.37;96555.00;10405007;28;20033;-31
2022/08/27 23:52:52;;;;;;;1.42;1.30;;;;;;;22.81;56.34;96549.31;10405299;28;20032;-29